createdAt,value
2019-05-17T00:00:27.679Z,5.7
2019-05-17T00:01:01.922Z,5.6
2019-05-17T00:01:38.008Z,5.7
2019-05-17T00:02:13.806Z,5.6
2019-05-17T00:02:49.821Z,5.7
2019-05-17T00:03:27.349Z,5.6
2019-05-17T00:04:01.841Z,5.7
2019-05-17T00:04:37.803Z,5.6
2019-05-17T00:05:13.786Z,5.6
2019-05-17T00:05:49.869Z,5.5
2019-05-17T00:06:27.893Z,5.6
2019-05-17T00:07:01.806Z,5.7
2019-05-17T00:07:37.773Z,5.5
2019-05-17T00:08:16.323Z,5.6
2019-05-17T00:08:49.863Z,5.5
2019-05-17T00:09:27.079Z,5.6
2019-05-17T00:10:01.781Z,5.6
2019-05-17T00:10:38.128Z,5.5
2019-05-17T00:11:13.830Z,5.6
2019-05-17T00:11:49.841Z,5.5
2019-05-17T00:12:27.496Z,5.5
2019-05-17T00:13:01.865Z,5.4
2019-05-17T00:13:39.107Z,5.4
2019-05-17T00:14:13.793Z,5.6
2019-05-17T00:14:49.882Z,5.5
2019-05-17T00:15:27.685Z,5.6
2019-05-17T00:16:01.835Z,5.5
2019-05-17T00:16:37.889Z,5.6
2019-05-17T00:17:13.922Z,5.6
2019-05-17T00:17:49.866Z,5.5
2019-05-17T00:18:26.808Z,5.5
2019-05-17T00:19:01.788Z,5.6
2019-05-17T00:19:37.872Z,5.6
2019-05-17T00:20:13.849Z,5.6
2019-05-17T00:20:49.845Z,5.6
2019-05-17T00:21:27.827Z,5.5
2019-05-17T00:22:01.878Z,5.5
2019-05-17T00:22:37.959Z,5.6
2019-05-17T00:23:13.812Z,5.6
2019-05-17T00:23:49.787Z,5.5
2019-05-17T00:24:26.847Z,5.6
2019-05-17T00:25:01.845Z,5.6
2019-05-17T00:25:37.992Z,5.6
2019-05-17T00:26:15.919Z,5.4
2019-05-17T00:26:49.903Z,5.5
2019-05-17T00:27:26.853Z,5.6
2019-05-17T00:28:01.935Z,5.5
2019-05-17T00:28:37.894Z,5.5
2019-05-17T00:29:13.865Z,5.5
2019-05-17T00:29:49.847Z,5.6
2019-05-17T00:30:26.884Z,5.4
2019-05-17T00:31:01.777Z,5.5
2019-05-17T00:31:37.863Z,5.5
2019-05-17T00:32:13.843Z,5.4
2019-05-17T00:32:49.802Z,5.5
2019-05-17T00:33:27.564Z,5.5
2019-05-17T00:34:01.862Z,5.5
2019-05-17T00:34:38.127Z,5.5
2019-05-17T00:35:13.802Z,5.5
2019-05-17T00:35:49.773Z,5.6
2019-05-17T00:36:27.246Z,5.5
2019-05-17T00:37:01.856Z,5.5
2019-05-17T00:37:37.817Z,5.4
2019-05-17T00:38:13.782Z,5.4
2019-05-17T00:38:51.927Z,5.4
2019-05-17T00:39:27.532Z,5.5
2019-05-17T00:40:01.805Z,5.6
2019-05-17T00:40:37.924Z,5.5
2019-05-17T00:41:13.858Z,5.6
2019-05-17T00:41:49.821Z,5.6
2019-05-17T00:42:26.753Z,5.6
2019-05-17T00:43:01.892Z,5.5
2019-05-17T00:43:37.911Z,5.6
2019-05-17T00:44:13.821Z,5.6
2019-05-17T00:44:49.788Z,5.5
2019-05-17T00:45:27.076Z,5.6
2019-05-17T00:46:01.896Z,5.5
2019-05-17T00:46:37.816Z,5.6
2019-05-17T00:47:13.790Z,5.5
2019-05-17T00:47:49.868Z,5.5
2019-05-17T00:48:26.820Z,5.5
2019-05-17T00:49:01.924Z,5.5
2019-05-17T00:49:37.795Z,5.6
2019-05-17T00:50:13.873Z,5.6
2019-05-17T00:50:54.350Z,5.6
2019-05-17T00:51:27.751Z,5.6
2019-05-17T00:52:01.781Z,5.5
2019-05-17T00:52:37.872Z,5.6
2019-05-17T00:53:15.889Z,5.5
2019-05-17T00:53:49.811Z,5.5
2019-05-17T00:54:27.227Z,5.6
2019-05-17T00:55:01.892Z,5.4
2019-05-17T00:55:37.855Z,5.5
2019-05-17T00:56:13.809Z,5.5
2019-05-17T00:56:49.774Z,5.5
2019-05-17T00:57:27.709Z,5.4
2019-05-17T00:58:01.831Z,5.5
2019-05-17T00:58:37.810Z,5.5
2019-05-17T00:59:13.779Z,5.4
2019-05-17T00:59:49.914Z,5.4
2019-05-17T01:00:28.204Z,5.3
2019-05-17T01:01:01.812Z,5.4
2019-05-17T01:01:37.771Z,5.3
2019-05-17T01:02:15.874Z,5.4
2019-05-17T01:02:49.831Z,5.3
2019-05-17T01:03:27.276Z,5.4
2019-05-17T01:04:01.780Z,5.4
2019-05-17T01:04:37.875Z,5.3
2019-05-17T01:05:13.878Z,5.3
2019-05-17T01:05:49.895Z,5.3
2019-05-17T01:06:27.883Z,5.3
2019-05-17T01:07:01.867Z,5.2
2019-05-17T01:07:38.174Z,5.2
2019-05-17T01:08:13.791Z,5.2
2019-05-17T01:09:03.977Z,5.2
2019-05-17T01:09:27.639Z,5.2
2019-05-17T01:10:01.942Z,5.2
2019-05-17T01:10:37.794Z,5.3
2019-05-17T01:11:13.874Z,5.1
2019-05-17T01:11:49.866Z,5.1
2019-05-17T01:12:27.503Z,5.2
2019-05-17T01:13:01.785Z,5.1
2019-05-17T01:13:37.945Z,5.1
2019-05-17T01:14:13.846Z,5
2019-05-17T01:14:49.815Z,5
2019-05-17T01:15:27.645Z,5
2019-05-17T01:16:01.876Z,4.9
2019-05-17T01:16:37.840Z,4.9
2019-05-17T01:17:13.808Z,4.9
2019-05-17T01:17:49.781Z,4.9
2019-05-17T01:18:27.281Z,4.9
2019-05-17T01:19:01.840Z,4.9
2019-05-17T01:19:37.811Z,4.9
2019-05-17T01:20:13.849Z,4.8
2019-05-17T01:20:49.974Z,4.8
2019-05-17T01:21:26.616Z,4.7
2019-05-17T01:22:01.821Z,4.7
2019-05-17T01:22:37.772Z,4.7
2019-05-17T01:23:13.861Z,4.7
2019-05-17T01:23:49.835Z,4.6
2019-05-17T01:24:27.764Z,4.7
2019-05-17T01:25:01.783Z,4.6
2019-05-17T01:25:37.932Z,4.6
2019-05-17T01:26:13.829Z,4.6
2019-05-17T01:26:49.798Z,4.5
2019-05-17T01:27:26.675Z,4.4
2019-05-17T01:28:01.859Z,4.5
2019-05-17T01:28:37.824Z,4.5
2019-05-17T01:29:13.801Z,4.6
2019-05-17T01:29:49.765Z,4.5
2019-05-17T01:30:26.971Z,4.4
2019-05-17T01:31:01.827Z,4.5
2019-05-17T01:31:37.793Z,4.4
2019-05-17T01:32:13.762Z,4.4
2019-05-17T01:32:49.851Z,4.3
2019-05-17T01:33:26.837Z,4.3
2019-05-17T01:34:01.791Z,4.3
2019-05-17T01:34:38.074Z,4.2
2019-05-17T01:35:16.122Z,4.3
2019-05-17T01:35:49.930Z,4.3
2019-05-17T01:36:26.700Z,4.3
2019-05-17T01:37:01.926Z,4.2
2019-05-17T01:37:37.891Z,4.2
2019-05-17T01:38:13.816Z,4.1
2019-05-17T01:38:49.810Z,4.2
2019-05-17T01:39:27.207Z,4.2
2019-05-17T01:40:01.841Z,4.1
2019-05-17T01:40:37.841Z,4.1
2019-05-17T01:41:13.898Z,4.1
2019-05-17T01:41:49.871Z,4.2
2019-05-17T01:42:26.823Z,4.1
2019-05-17T01:43:01.829Z,4.2
2019-05-17T01:43:37.789Z,4.2
2019-05-17T01:44:13.871Z,4.2
2019-05-17T01:44:49.850Z,4.2
2019-05-17T01:45:27.237Z,4.2
2019-05-17T01:46:01.775Z,4.3
2019-05-17T01:46:37.974Z,4.3
2019-05-17T01:47:13.845Z,4.2
2019-05-17T01:47:49.804Z,4.4
2019-05-17T01:48:27.418Z,4.4
2019-05-17T01:49:01.857Z,4.4
2019-05-17T01:49:37.834Z,4.3
2019-05-17T01:50:13.813Z,4.4
2019-05-17T01:50:49.788Z,4.4
2019-05-17T01:51:26.653Z,4.3
2019-05-17T01:52:01.967Z,4.3
2019-05-17T01:52:37.810Z,4.3
2019-05-17T01:53:13.772Z,4.4
2019-05-17T01:53:49.854Z,4.3
2019-05-17T01:54:27.223Z,4.2
2019-05-17T01:55:01.817Z,4.3
2019-05-17T01:55:38.038Z,4.3
2019-05-17T01:56:13.856Z,4.4
2019-05-17T01:56:49.823Z,4.4
2019-05-17T01:57:27.782Z,4.3
2019-05-17T01:58:01.767Z,4.4
2019-05-17T01:58:37.857Z,4.3
2019-05-17T01:59:13.818Z,4.3
2019-05-17T01:59:49.798Z,4.3
2019-05-17T02:00:26.907Z,4.3
2019-05-17T02:01:01.949Z,4.3
2019-05-17T02:01:37.842Z,4.4
2019-05-17T02:02:13.790Z,4.3
2019-05-17T02:02:49.893Z,4.3
2019-05-17T02:03:27.119Z,4.3
2019-05-17T02:04:01.822Z,4.5
2019-05-17T02:04:37.804Z,4.4
2019-05-17T02:05:13.887Z,4.4
2019-05-17T02:05:49.866Z,4.5
2019-05-17T02:06:27.416Z,4.5
2019-05-17T02:07:01.794Z,4.4
2019-05-17T02:07:37.882Z,4.5
2019-05-17T02:08:13.858Z,4.4
2019-05-17T02:08:49.810Z,4.5
2019-05-17T02:09:41.512Z,4.5
2019-05-17T02:10:02.111Z,4.4
2019-05-17T02:10:38.166Z,4.5
2019-05-17T02:11:13.826Z,4.5
2019-05-17T02:11:49.786Z,4.3
2019-05-17T02:12:27.091Z,4.4
2019-05-17T02:13:01.845Z,4.4
2019-05-17T02:13:38.106Z,4.4
2019-05-17T02:14:16.000Z,4.4
2019-05-17T02:14:49.861Z,4.4
2019-05-17T02:15:27.087Z,4.4
2019-05-17T02:16:01.799Z,4.4
2019-05-17T02:16:38.043Z,4.5
2019-05-17T02:17:13.864Z,4.5
2019-05-17T02:17:49.833Z,4.4
2019-05-17T02:18:26.964Z,4.4
2019-05-17T02:19:01.788Z,4.5
2019-05-17T02:19:37.853Z,4.5
2019-05-17T02:20:13.829Z,4.5
2019-05-17T02:20:49.820Z,4.6
2019-05-17T02:21:27.780Z,4.5
2019-05-17T02:22:01.850Z,4.5
2019-05-17T02:22:37.836Z,4.5
2019-05-17T02:23:13.788Z,4.4
2019-05-17T02:23:49.772Z,4.4
2019-05-17T02:24:27.819Z,4.5
2019-05-17T02:25:02.093Z,4.5
2019-05-17T02:25:37.792Z,4.5
2019-05-17T02:26:13.893Z,4.5
2019-05-17T02:26:49.854Z,4.5
2019-05-17T02:27:35.553Z,4.6
2019-05-17T02:28:02.187Z,4.5
2019-05-17T02:28:37.869Z,4.5
2019-05-17T02:29:13.849Z,4.5
2019-05-17T02:29:52.168Z,4.5
2019-05-17T02:30:25.792Z,4.6
2019-05-17T02:31:03.838Z,4.5
2019-05-17T02:31:37.844Z,4.6
2019-05-17T02:32:13.810Z,4.5
2019-05-17T02:32:49.783Z,4.5
2019-05-17T02:33:25.884Z,4.5
2019-05-17T02:34:03.444Z,4.5
2019-05-17T02:34:37.853Z,4.5
2019-05-17T02:35:15.212Z,4.4
2019-05-17T02:35:52.940Z,4.5
2019-05-17T02:36:25.851Z,4.5
2019-05-17T02:37:03.370Z,4.5
2019-05-17T02:37:37.798Z,4.5
2019-05-17T02:38:13.884Z,4.4
2019-05-17T02:38:53.409Z,4.5
2019-05-17T02:39:25.810Z,4.6
2019-05-17T02:40:08.420Z,4.4
2019-05-17T02:40:37.875Z,4.5
2019-05-17T02:41:14.646Z,4.5
2019-05-17T02:41:53.037Z,4.4
2019-05-17T02:42:25.770Z,4.5
2019-05-17T02:43:03.692Z,4.5
2019-05-17T02:43:37.851Z,4.5
2019-05-17T02:44:13.805Z,4.4
2019-05-17T02:44:53.419Z,4.5
2019-05-17T02:45:25.857Z,4.5
2019-05-17T02:46:04.355Z,4.5
2019-05-17T02:46:37.805Z,4.5
2019-05-17T02:47:13.782Z,4.5
2019-05-17T02:47:49.848Z,4.6
2019-05-17T02:48:25.841Z,4.5
2019-05-17T02:49:03.563Z,4.4
2019-05-17T02:49:52.702Z,4.5
2019-05-17T02:50:25.883Z,4.6
2019-05-17T02:51:04.209Z,4.5
2019-05-17T02:51:37.835Z,4.6
2019-05-17T02:52:13.816Z,4.6
2019-05-17T02:52:53.086Z,4.7
2019-05-17T02:53:25.860Z,4.6
2019-05-17T02:54:04.558Z,4.5
2019-05-17T02:54:37.789Z,4.6
2019-05-17T02:55:13.963Z,4.6
2019-05-17T02:55:49.850Z,4.6
2019-05-17T02:56:25.839Z,4.6
2019-05-17T02:57:03.658Z,4.6
2019-05-17T02:57:37.877Z,4.6
2019-05-17T02:58:25.865Z,4.6
2019-05-17T02:59:04.081Z,4.6
2019-05-17T02:59:37.852Z,4.6
2019-05-17T03:00:14.453Z,4.6
2019-05-17T03:00:53.574Z,4.6
2019-05-17T03:01:25.888Z,4.6
2019-05-17T03:02:04.236Z,4.7
2019-05-17T03:02:37.780Z,4.5
2019-05-17T03:03:13.928Z,4.6
2019-05-17T03:03:53.184Z,4.6
2019-05-17T03:04:25.804Z,4.6
2019-05-17T03:05:04.522Z,4.6
2019-05-17T03:05:37.872Z,4.6
2019-05-17T03:06:14.111Z,4.6
2019-05-17T03:07:04.316Z,4.6
2019-05-17T03:07:37.807Z,4.5
2019-05-17T03:08:13.800Z,4.6
2019-05-17T03:08:52.867Z,4.6
2019-05-17T03:09:25.962Z,4.5
2019-05-17T03:10:24.836Z,4.5
2019-05-17T03:10:37.765Z,4.5
2019-05-17T03:11:14.043Z,4.5
2019-05-17T03:11:56.926Z,4.5
2019-05-17T03:12:25.813Z,4.5
2019-05-17T03:13:04.598Z,4.4
2019-05-17T03:13:37.865Z,4.5
2019-05-17T03:14:13.831Z,4.4
2019-05-17T03:14:53.068Z,4.5
2019-05-17T03:15:25.762Z,4.4
2019-05-17T03:16:04.078Z,4.4
2019-05-17T03:16:37.821Z,4.4
2019-05-17T03:17:14.498Z,4.4
2019-05-17T03:17:53.408Z,4.5
2019-05-17T03:18:25.857Z,4.4
2019-05-17T03:19:04.684Z,4.4
2019-05-17T03:19:37.786Z,4.5
2019-05-17T03:20:14.165Z,4.4
2019-05-17T03:20:52.957Z,4.4
2019-05-17T03:21:25.827Z,4.5
2019-05-17T03:22:08.027Z,4.5
2019-05-17T03:22:37.882Z,4.4
2019-05-17T03:23:13.880Z,4.4
2019-05-17T03:23:49.824Z,4.5
2019-05-17T03:24:25.782Z,4.4
2019-05-17T03:25:03.889Z,4.5
2019-05-17T03:25:37.841Z,4.5
2019-05-17T03:26:13.847Z,4.5
2019-05-17T03:26:53.006Z,4.4
2019-05-17T03:27:25.878Z,4.4
2019-05-17T03:28:03.471Z,4.5
2019-05-17T03:28:37.829Z,4.6
2019-05-17T03:29:14.188Z,4.6
2019-05-17T03:29:53.923Z,4.5
2019-05-17T03:30:26.601Z,4.6
2019-05-17T03:31:09.332Z,4.5
2019-05-17T03:31:57.678Z,4.6
2019-05-17T03:32:56.927Z,4.6
2019-05-17T03:33:27.556Z,4.6
2019-05-17T03:34:07.481Z,4.6
2019-05-17T03:34:38.177Z,4.6
2019-05-17T03:35:17.805Z,4.6
2019-05-17T03:35:55.946Z,4.6
2019-05-17T03:36:27.041Z,4.5
2019-05-17T03:37:07.710Z,4.6
2019-05-17T03:37:38.490Z,4.6
2019-05-17T03:38:14.548Z,4.5
2019-05-17T03:38:49.774Z,4.5
2019-05-17T03:39:25.867Z,4.5
2019-05-17T03:40:24.660Z,4.5
2019-05-17T03:41:13.235Z,4.6
2019-05-17T03:41:27.758Z,4.4
2019-05-17T03:41:52.833Z,4.5
2019-05-17T03:42:25.821Z,4.6
2019-05-17T03:43:03.198Z,4.5
2019-05-17T03:43:44.163Z,4.6
2019-05-17T03:44:14.126Z,4.5
2019-05-17T03:44:53.293Z,4.6
2019-05-17T03:45:25.786Z,4.6
2019-05-17T03:46:03.224Z,4.6
2019-05-17T03:46:37.853Z,4.6
2019-05-17T03:47:13.834Z,4.6
2019-05-17T03:47:53.467Z,4.6
2019-05-17T03:48:25.905Z,4.6
2019-05-17T03:49:04.267Z,4.6
2019-05-17T03:49:42.916Z,4.7
2019-05-17T03:50:14.611Z,4.7
2019-05-17T03:50:53.319Z,4.7
2019-05-17T03:51:25.869Z,4.7
2019-05-17T03:52:03.225Z,4.7
2019-05-17T03:52:37.776Z,4.7
2019-05-17T03:53:13.882Z,4.7
2019-05-17T03:53:53.361Z,4.7
2019-05-17T03:54:25.807Z,4.7
2019-05-17T03:55:04.471Z,4.7
2019-05-17T03:55:37.897Z,4.7
2019-05-17T03:56:13.854Z,4.7
2019-05-17T03:56:52.994Z,4.8
2019-05-17T03:57:25.806Z,4.6
2019-05-17T03:58:03.838Z,4.7
2019-05-17T03:58:37.835Z,4.7
2019-05-17T03:59:13.800Z,4.8
2019-05-17T03:59:52.715Z,4.8
2019-05-17T04:00:25.857Z,4.8
2019-05-17T04:01:04.568Z,4.7
2019-05-17T04:01:37.804Z,4.7
2019-05-17T04:02:13.780Z,4.8
2019-05-17T04:02:53.317Z,4.8
2019-05-17T04:03:25.832Z,4.8
2019-05-17T04:04:03.388Z,4.8
2019-05-17T04:04:37.775Z,4.9
2019-05-17T04:05:13.946Z,4.8
2019-05-17T04:05:53.206Z,4.9
2019-05-17T04:06:25.812Z,4.8
2019-05-17T04:07:03.803Z,4.7
2019-05-17T04:07:37.866Z,4.8
2019-05-17T04:08:14.391Z,4.8
2019-05-17T04:08:52.989Z,4.7
2019-05-17T04:09:25.882Z,4.7
2019-05-17T04:10:04.917Z,4.8
2019-05-17T04:10:37.825Z,4.8
2019-05-17T04:11:31.284Z,4.9
2019-05-17T04:11:52.775Z,4.8
2019-05-17T04:12:25.851Z,4.7
2019-05-17T04:13:04.784Z,4.8
2019-05-17T04:13:37.781Z,4.8
2019-05-17T04:14:14.411Z,4.8
2019-05-17T04:14:53.650Z,4.9
2019-05-17T04:15:37.866Z,5
2019-05-17T04:16:14.516Z,5
2019-05-17T04:16:49.809Z,5
2019-05-17T04:17:25.873Z,5.1
2019-05-17T04:18:04.780Z,5.1
2019-05-17T04:18:37.844Z,5.3
2019-05-17T04:19:14.427Z,5.2
2019-05-17T04:19:53.599Z,5.3
2019-05-17T04:20:25.840Z,5.3
2019-05-17T04:21:03.808Z,5.3
2019-05-17T04:21:37.790Z,5.5
2019-05-17T04:22:14.407Z,5.5
2019-05-17T04:22:52.970Z,5.5
2019-05-17T04:23:25.832Z,5.6
2019-05-17T04:24:13.809Z,5.7
2019-05-17T04:24:52.733Z,5.8
2019-05-17T04:25:25.873Z,5.7
2019-05-17T04:26:04.675Z,5.8
2019-05-17T04:26:37.811Z,6
2019-05-17T04:27:14.088Z,6
2019-05-17T04:27:52.799Z,6
2019-05-17T04:28:25.830Z,6.1
2019-05-17T04:29:03.923Z,6.1
2019-05-17T04:29:37.775Z,6.2
2019-05-17T04:30:13.993Z,6.2
2019-05-17T04:30:53.073Z,6.3
2019-05-17T04:31:25.806Z,6.2
2019-05-17T04:32:04.452Z,6.3
2019-05-17T04:32:37.868Z,6.2
2019-05-17T04:33:13.818Z,6.2
2019-05-17T04:33:49.799Z,6.3
2019-05-17T04:34:25.754Z,6.4
2019-05-17T04:35:04.135Z,6.5
2019-05-17T04:35:37.819Z,6.6
2019-05-17T04:36:13.825Z,6.6
2019-05-17T04:36:52.468Z,6.6
2019-05-17T04:37:25.847Z,6.7
2019-05-17T04:38:04.764Z,6.7
2019-05-17T04:38:37.800Z,6.8
2019-05-17T04:39:14.020Z,6.8
2019-05-17T04:39:52.842Z,7.1
2019-05-17T04:40:25.810Z,7
2019-05-17T04:41:03.757Z,7
2019-05-17T04:41:50.107Z,7.2
2019-05-17T04:42:14.117Z,7.2
2019-05-17T04:42:52.914Z,7.2
2019-05-17T04:43:25.802Z,7.2
2019-05-17T04:44:03.089Z,7.2
2019-05-17T04:44:37.830Z,7.2
2019-05-17T04:45:13.937Z,7.2
2019-05-17T04:45:53.180Z,7.3
2019-05-17T04:46:25.867Z,7.3
2019-05-17T04:47:03.631Z,7.4
2019-05-17T04:47:37.815Z,7.3
2019-05-17T04:48:13.826Z,7.4
2019-05-17T04:48:53.307Z,7.4
2019-05-17T04:49:25.840Z,7.4
2019-05-17T04:50:04.506Z,7.4
2019-05-17T04:50:37.774Z,7.3
2019-05-17T04:51:13.863Z,7.3
2019-05-17T04:51:52.852Z,7.3
2019-05-17T04:52:25.805Z,7.4
2019-05-17T04:53:03.258Z,7.5
2019-05-17T04:53:37.871Z,7.3
2019-05-17T04:54:14.388Z,7.4
2019-05-17T04:54:53.992Z,7.4
2019-05-17T04:55:25.770Z,7.4
2019-05-17T04:56:03.644Z,7.4
2019-05-17T04:56:37.833Z,7.4
2019-05-17T04:57:13.794Z,7.4
2019-05-17T04:57:53.364Z,7.4
2019-05-17T04:58:25.853Z,7.4
2019-05-17T04:59:03.949Z,7.4
2019-05-17T04:59:37.818Z,7.4
2019-05-17T05:00:14.068Z,7.4
2019-05-17T05:00:49.847Z,7.5
2019-05-17T05:01:25.833Z,7.4
2019-05-17T05:02:03.621Z,7.4
2019-05-17T05:02:37.758Z,7.5
2019-05-17T05:03:13.853Z,7.5
2019-05-17T05:03:52.736Z,7.5
2019-05-17T05:04:25.783Z,7.6
2019-05-17T05:05:03.797Z,7.5
2019-05-17T05:05:37.847Z,7.6
2019-05-17T05:06:13.927Z,7.5
2019-05-17T05:06:52.718Z,7.7
2019-05-17T05:07:25.759Z,7.7
2019-05-17T05:08:03.646Z,7.7
2019-05-17T05:08:37.828Z,7.8
2019-05-17T05:09:13.777Z,7.8
2019-05-17T05:09:52.651Z,7.9
2019-05-17T05:10:25.853Z,8
2019-05-17T05:11:04.542Z,8
2019-05-17T05:12:00.602Z,7.9
2019-05-17T05:12:13.859Z,7.9
2019-05-17T05:12:52.743Z,8
2019-05-17T05:13:25.801Z,8.1
2019-05-17T05:14:03.182Z,8.1
2019-05-17T05:14:37.861Z,8.1
2019-05-17T05:15:13.870Z,8.2
2019-05-17T05:15:52.416Z,8.2
2019-05-17T05:16:25.768Z,8.2
2019-05-17T05:17:02.911Z,8.2
2019-05-17T05:17:37.831Z,8.3
2019-05-17T05:18:14.155Z,8.4
2019-05-17T05:18:52.304Z,8.5
2019-05-17T05:19:25.847Z,8.6
2019-05-17T05:20:03.288Z,8.5
2019-05-17T05:20:37.793Z,8.6
2019-05-17T05:21:13.775Z,8.6
2019-05-17T05:21:52.333Z,8.7
2019-05-17T05:22:25.821Z,8.6
2019-05-17T05:23:03.000Z,8.5
2019-05-17T05:23:37.776Z,8.6
2019-05-17T05:24:13.840Z,8.7
2019-05-17T05:24:49.819Z,8.7
2019-05-17T05:25:25.786Z,8.7
2019-05-17T05:26:03.463Z,8.9
2019-05-17T05:26:37.855Z,9
2019-05-17T05:27:13.810Z,9.1
2019-05-17T05:27:51.911Z,9
2019-05-17T05:28:25.839Z,9
2019-05-17T05:29:02.577Z,9.1
2019-05-17T05:29:37.812Z,9.1
2019-05-17T05:30:13.776Z,9.2
2019-05-17T05:30:49.755Z,9.1
2019-05-17T05:31:25.839Z,9.1
2019-05-17T05:32:02.994Z,9.1
2019-05-17T05:32:49.803Z,9.1
2019-05-17T05:33:25.774Z,9.1
2019-05-17T05:34:02.311Z,9.2
2019-05-17T05:34:37.836Z,9.2
2019-05-17T05:35:13.808Z,9.1
2019-05-17T05:35:51.922Z,9.2
2019-05-17T05:36:25.739Z,9.2
2019-05-17T05:37:02.580Z,9.1
2019-05-17T05:37:37.802Z,9.1
2019-05-17T05:38:13.784Z,9.1
2019-05-17T05:38:51.773Z,9
2019-05-17T05:39:25.849Z,9
2019-05-17T05:40:02.512Z,8.9
2019-05-17T05:40:37.772Z,9
2019-05-17T05:41:13.742Z,9.1
2019-05-17T05:41:59.506Z,9.1
2019-05-17T05:42:25.799Z,9
2019-05-17T05:43:02.654Z,9.1
2019-05-17T05:43:37.762Z,9
2019-05-17T05:44:13.836Z,9.1
2019-05-17T05:44:52.109Z,9
2019-05-17T05:45:25.760Z,9
2019-05-17T05:46:02.917Z,9.1
2019-05-17T05:46:37.824Z,9
2019-05-17T05:47:13.798Z,9.1
2019-05-17T05:47:51.732Z,9.1
2019-05-17T05:48:25.840Z,9.4
2019-05-17T05:49:02.236Z,9.4
2019-05-17T05:49:37.816Z,9.5
2019-05-17T05:50:13.757Z,9.8
2019-05-17T05:50:52.352Z,9.8
2019-05-17T05:51:25.818Z,9.9
2019-05-17T05:52:02.381Z,10
2019-05-17T05:52:37.773Z,9.9
2019-05-17T05:53:13.833Z,10
2019-05-17T05:53:52.450Z,10.1
2019-05-17T05:54:25.798Z,10.1
2019-05-17T05:55:01.929Z,10.1
2019-05-17T05:55:37.844Z,10.1
2019-05-17T05:56:13.835Z,10.1
2019-05-17T05:56:49.785Z,10.1
2019-05-17T05:57:25.749Z,10
2019-05-17T05:58:03.324Z,9.8
2019-05-17T05:58:37.817Z,9.8
2019-05-17T05:59:13.778Z,9.9
2019-05-17T05:59:52.088Z,9.7
2019-05-17T06:00:25.835Z,9.7
2019-05-17T06:01:02.920Z,9.8
2019-05-17T06:01:37.781Z,9.8
2019-05-17T06:02:13.754Z,9.8
2019-05-17T06:02:52.569Z,9.9
2019-05-17T06:03:26.042Z,9.7
2019-05-17T06:04:03.078Z,9.7
2019-05-17T06:04:37.743Z,9.8
2019-05-17T06:05:17.494Z,9.8
2019-05-17T06:05:51.994Z,9.8
2019-05-17T06:06:25.803Z,9.8
2019-05-17T06:07:03.342Z,10
2019-05-17T06:07:37.826Z,10
2019-05-17T06:08:13.797Z,10.1
2019-05-17T06:08:52.326Z,10
2019-05-17T06:09:25.751Z,10.1
2019-05-17T06:10:02.568Z,10.1
2019-05-17T06:10:42.473Z,10.3
2019-05-17T06:11:13.757Z,10.5
2019-05-17T06:11:52.179Z,10.6
2019-05-17T06:12:28.492Z,10.6
2019-05-17T06:13:03.486Z,10.7
2019-05-17T06:13:37.775Z,10.8
2019-05-17T06:14:13.744Z,10.8
2019-05-17T06:14:51.885Z,10.8
2019-05-17T06:15:25.785Z,11
2019-05-17T06:16:03.046Z,11.1
2019-05-17T06:16:37.727Z,11.3
2019-05-17T06:17:13.829Z,11.4
2019-05-17T06:17:52.261Z,11.5
2019-05-17T06:18:25.756Z,11.8
2019-05-17T06:19:02.704Z,11.8
2019-05-17T06:19:37.830Z,11.9
2019-05-17T06:20:13.782Z,12.2
2019-05-17T06:20:52.203Z,12.3
2019-05-17T06:21:25.721Z,12.5
2019-05-17T06:22:03.061Z,12.7
2019-05-17T06:22:37.788Z,12.9
2019-05-17T06:23:13.753Z,13
2019-05-17T06:23:51.895Z,13.3
2019-05-17T06:24:25.825Z,13.3
2019-05-17T06:25:04.328Z,13.3
2019-05-17T06:25:37.743Z,13.5
2019-05-17T06:26:13.722Z,13.4
2019-05-17T06:26:49.833Z,13.4
2019-05-17T06:27:25.771Z,13.5
2019-05-17T06:28:02.008Z,13.6
2019-05-17T06:28:37.826Z,13.7
2019-05-17T06:29:13.800Z,13.6
2019-05-17T06:29:51.851Z,13.8
2019-05-17T06:30:25.757Z,13.8
2019-05-17T06:31:03.318Z,13.9
2019-05-17T06:31:37.794Z,13.9
2019-05-17T06:32:13.785Z,14
2019-05-17T06:32:51.977Z,14
2019-05-17T06:33:34.357Z,14.1
2019-05-17T06:34:02.351Z,14.2
2019-05-17T06:34:37.768Z,14.3
2019-05-17T06:35:13.739Z,14.3
2019-05-17T06:35:52.358Z,14.3
2019-05-17T06:36:25.813Z,14.4
2019-05-17T06:37:02.614Z,14.5
2019-05-17T06:37:37.760Z,14.6
2019-05-17T06:38:13.819Z,14.7
2019-05-17T06:38:49.796Z,14.9
2019-05-17T06:39:25.761Z,15
2019-05-17T06:40:02.802Z,15
2019-05-17T06:40:37.812Z,15
2019-05-17T06:41:13.829Z,15.1
2019-05-17T06:41:51.809Z,15.2
2019-05-17T06:42:41.306Z,15.3
2019-05-17T06:43:04.636Z,15.3
2019-05-17T06:43:38.909Z,15.4
2019-05-17T06:44:13.763Z,15.3
2019-05-17T06:44:52.243Z,15.5
2019-05-17T06:45:25.806Z,15.5
2019-05-17T06:46:02.267Z,15.7
2019-05-17T06:46:37.798Z,15.8
2019-05-17T06:47:13.723Z,15.8
2019-05-17T06:47:52.116Z,15.9
2019-05-17T06:48:25.787Z,15.9
2019-05-17T06:49:03.367Z,16.1
2019-05-17T06:49:37.731Z,16.1
2019-05-17T06:50:14.934Z,16.1
2019-05-17T06:50:52.190Z,16.2
2019-05-17T06:51:25.755Z,16.2
2019-05-17T06:52:02.828Z,16.4
2019-05-17T06:52:37.803Z,16.3
2019-05-17T06:53:13.781Z,16.3
2019-05-17T06:53:49.741Z,16.4
2019-05-17T06:54:25.712Z,16.4
2019-05-17T06:55:06.128Z,16.4
2019-05-17T06:55:37.765Z,16.5
2019-05-17T06:56:13.739Z,16.5
2019-05-17T06:56:49.706Z,16.7
2019-05-17T06:57:25.827Z,16.7
2019-05-17T06:58:02.100Z,16.7
2019-05-17T06:58:37.734Z,16.9
2019-05-17T06:59:13.700Z,17.1
2019-05-17T06:59:49.788Z,17.2
2019-05-17T07:00:25.767Z,17.3
2019-05-17T07:01:01.970Z,17.5
2019-05-17T07:01:37.701Z,17.5
2019-05-17T07:02:13.789Z,17.7
2019-05-17T07:02:50.165Z,17.8
2019-05-17T07:03:25.746Z,17.8
2019-05-17T07:04:01.700Z,17.9
2019-05-17T07:04:39.838Z,17.9
2019-05-17T07:05:13.752Z,17.8
2019-05-17T07:05:50.525Z,17.9
2019-05-17T07:06:25.690Z,17.8
2019-05-17T07:07:01.809Z,17.8
2019-05-17T07:07:40.034Z,17.8
2019-05-17T07:08:13.734Z,17.8
2019-05-17T07:08:49.879Z,17.8
2019-05-17T07:09:25.801Z,17.9
2019-05-17T07:10:01.928Z,17.8
2019-05-17T07:10:40.147Z,17.8
2019-05-17T07:11:13.695Z,17.8
2019-05-17T07:11:51.644Z,18
2019-05-17T07:12:25.757Z,18
2019-05-17T07:13:02.421Z,17.7
2019-05-17T07:13:39.819Z,17.8
2019-05-17T07:14:13.776Z,17.8
2019-05-17T07:14:51.083Z,17.9
2019-05-17T07:15:25.718Z,17.9
2019-05-17T07:16:01.684Z,17.9
2019-05-17T07:16:39.934Z,17.8
2019-05-17T07:17:13.746Z,17.7
2019-05-17T07:17:50.803Z,17.5
2019-05-17T07:18:25.684Z,17.5
2019-05-17T07:19:01.784Z,17.5
2019-05-17T07:19:40.338Z,17.7
2019-05-17T07:20:13.709Z,17.6
2019-05-17T07:20:50.529Z,17.7
2019-05-17T07:21:25.773Z,17.8
2019-05-17T07:22:01.761Z,17.9
2019-05-17T07:22:41.111Z,18
2019-05-17T07:23:13.673Z,18.1
2019-05-17T07:23:50.193Z,18.2
2019-05-17T07:24:25.776Z,18.2
2019-05-17T07:25:01.744Z,18.3
2019-05-17T07:25:40.023Z,18.4
2019-05-17T07:26:13.757Z,18.4
2019-05-17T07:26:50.123Z,18.5
2019-05-17T07:27:42.543Z,18.6
2019-05-17T07:28:01.869Z,18.7
2019-05-17T07:28:37.755Z,18.7
2019-05-17T07:29:13.749Z,18.6
2019-05-17T07:29:50.095Z,18.5
2019-05-17T07:30:25.780Z,18.6
2019-05-17T07:31:01.758Z,18.5
2019-05-17T07:31:37.721Z,18.6
2019-05-17T07:32:13.693Z,18.7
2019-05-17T07:33:01.765Z,18.4
2019-05-17T07:33:40.075Z,18.1
2019-05-17T07:34:13.751Z,18
2019-05-17T07:34:51.108Z,18
2019-05-17T07:35:25.691Z,18
2019-05-17T07:36:01.777Z,17.9
2019-05-17T07:36:40.054Z,17.8
2019-05-17T07:37:13.721Z,18
2019-05-17T07:37:50.473Z,17.9
2019-05-17T07:38:25.791Z,18
2019-05-17T07:39:01.751Z,18
2019-05-17T07:39:42.425Z,18.2
2019-05-17T07:40:13.709Z,18.2
2019-05-17T07:40:50.540Z,18.1
2019-05-17T07:41:25.745Z,18.3
2019-05-17T07:42:01.745Z,18.3
2019-05-17T07:42:40.042Z,18.3
2019-05-17T07:43:15.255Z,18.3
2019-05-17T07:43:50.116Z,18.4
2019-05-17T07:44:25.707Z,18.4
2019-05-17T07:45:01.717Z,18.4
2019-05-17T07:45:40.712Z,18.4
2019-05-17T07:46:13.744Z,18.4
2019-05-17T07:46:52.156Z,18.2
2019-05-17T07:47:25.694Z,18.1
2019-05-17T07:48:01.765Z,18.1
2019-05-17T07:48:40.301Z,18.2
2019-05-17T07:49:13.700Z,18.2
2019-05-17T07:49:49.856Z,18.2
2019-05-17T07:50:25.760Z,18.2
2019-05-17T07:51:01.787Z,18.3
2019-05-17T07:51:39.903Z,18.2
2019-05-17T07:52:13.666Z,18.3
2019-05-17T07:52:50.319Z,18.4
2019-05-17T07:53:25.740Z,18.5
2019-05-17T07:54:01.699Z,18.5
2019-05-17T07:54:40.100Z,18.5
2019-05-17T07:55:13.767Z,18.6
2019-05-17T07:55:50.950Z,18.8
2019-05-17T07:56:25.736Z,18.9
2019-05-17T07:57:01.679Z,19
2019-05-17T07:57:37.760Z,19.1
2019-05-17T07:58:13.725Z,19.3
2019-05-17T07:58:49.896Z,19.5
2019-05-17T07:59:25.661Z,19.6
2019-05-17T08:00:01.753Z,19.9
2019-05-17T08:00:40.528Z,20
2019-05-17T08:01:13.699Z,20.1
2019-05-17T08:01:50.620Z,20.3
2019-05-17T08:02:25.773Z,20.4
2019-05-17T08:03:01.758Z,20.5
2019-05-17T08:03:37.685Z,20.5
2019-05-17T08:04:13.664Z,20.5
2019-05-17T08:04:50.465Z,20.6
2019-05-17T08:05:25.723Z,20.6
2019-05-17T08:06:13.760Z,20.6
2019-05-17T08:06:50.875Z,20.7
2019-05-17T08:08:25.682Z,20.7
2019-05-17T08:09:04.763Z,20.7
2019-05-17T08:09:40.261Z,20.5
2019-05-17T08:10:13.745Z,20.5
2019-05-17T08:10:51.375Z,20.4
2019-05-17T08:11:25.651Z,20.3
2019-05-17T08:12:01.761Z,20.2
2019-05-17T08:12:41.106Z,20.2
2019-05-17T08:13:30.229Z,20.1
2019-05-17T08:13:50.811Z,20
2019-05-17T08:14:32.977Z,20.1
2019-05-17T08:15:01.728Z,20.1
2019-05-17T08:15:40.045Z,20.1
2019-05-17T08:16:13.639Z,20.3